createdAt,value
2018-04-24T00:00:01.221Z,9.656064
2018-04-24T00:00:13.658Z,3.218688
2018-04-24T00:00:26.088Z,3.218688
2018-04-24T00:00:38.539Z,9.656064
2018-04-24T00:00:51.009Z,9.656064
2018-04-24T00:01:03.437Z,9.656064
2018-04-24T00:01:15.864Z,6.437376
2018-04-24T00:01:28.369Z,6.437376
2018-04-24T00:01:40.783Z,8.04672
2018-04-24T00:01:53.212Z,9.656064
2018-04-24T00:02:05.691Z,6.437376
2018-04-24T00:02:18.143Z,6.437376
2018-04-24T00:02:30.535Z,8.04672
2018-04-24T00:02:42.953Z,8.04672
2018-04-24T00:02:55.361Z,8.04672
2018-04-24T00:03:07.791Z,6.437376
2018-04-24T00:03:20.195Z,8.04672
2018-04-24T00:03:32.614Z,8.04672
2018-04-24T00:03:45.045Z,9.656064
2018-04-24T00:03:57.465Z,9.656064
2018-04-24T00:04:09.958Z,3.218688
2018-04-24T00:04:22.389Z,4.828032
2018-04-24T00:04:34.808Z,4.828032
2018-04-24T00:04:47.209Z,6.437376
2018-04-24T00:04:59.618Z,6.437376
2018-04-24T00:05:12.017Z,8.04672
2018-04-24T00:05:24.439Z,9.656064
2018-04-24T00:05:36.855Z,9.656064
2018-04-24T00:05:49.260Z,9.656064
2018-04-24T00:06:01.727Z,9.656064
2018-04-24T00:06:14.147Z,6.437376
2018-04-24T00:06:26.568Z,6.437376
2018-04-24T00:06:38.986Z,6.437376
2018-04-24T00:06:51.403Z,6.437376
2018-04-24T00:07:03.816Z,6.437376
2018-04-24T00:07:16.379Z,6.437376
2018-04-24T00:07:28.784Z,8.04672
2018-04-24T00:07:41.182Z,8.04672
2018-04-24T00:07:53.592Z,8.04672
2018-04-24T00:08:06.015Z,3.218688
2018-04-24T00:08:18.436Z,6.437376
2018-04-24T00:08:30.887Z,6.437376
2018-04-24T00:08:43.301Z,6.437376
2018-04-24T00:08:55.747Z,6.437376
2018-04-24T00:09:08.165Z,3.218688
2018-04-24T00:09:20.590Z,8.04672
2018-04-24T00:09:32.992Z,11.265408
2018-04-24T00:09:45.488Z,11.265408
2018-04-24T00:09:58.851Z,11.265408
2018-04-24T00:10:11.260Z,9.656064
2018-04-24T00:10:23.663Z,9.656064
2018-04-24T00:10:36.139Z,9.656064
2018-04-24T00:10:48.539Z,9.656064
2018-04-24T00:11:00.996Z,9.656064
2018-04-24T00:11:13.415Z,6.437376
2018-04-24T00:11:25.823Z,8.04672
2018-04-24T00:11:38.247Z,8.04672
2018-04-24T00:11:50.669Z,8.04672
2018-04-24T00:12:03.109Z,8.04672
2018-04-24T00:12:15.775Z,6.437376
2018-04-24T00:12:28.176Z,6.437376
2018-04-24T00:12:40.592Z,6.437376
2018-04-24T00:12:53.017Z,8.04672
2018-04-24T00:13:05.458Z,3.218688
2018-04-24T00:13:17.869Z,3.218688
2018-04-24T00:13:30.262Z,4.828032
2018-04-24T00:13:42.822Z,6.437376
2018-04-24T00:13:55.240Z,6.437376
2018-04-24T00:14:07.687Z,3.218688
2018-04-24T00:14:20.094Z,4.828032
2018-04-24T00:14:32.508Z,4.828032
2018-04-24T00:14:44.915Z,4.828032
2018-04-24T00:14:57.327Z,4.828032
2018-04-24T00:15:09.727Z,8.04672
2018-04-24T00:15:22.210Z,8.04672
2018-04-24T00:15:34.619Z,8.04672
2018-04-24T00:15:47.041Z,8.04672
2018-04-24T00:15:59.451Z,8.04672
2018-04-24T00:16:11.910Z,3.218688
2018-04-24T00:16:24.303Z,3.218688
2018-04-24T00:16:36.748Z,3.218688
2018-04-24T00:16:49.177Z,3.218688
2018-04-24T00:17:01.577Z,3.218688
2018-04-24T00:17:14.009Z,3.218688
2018-04-24T00:17:26.500Z,3.218688
2018-04-24T00:17:38.910Z,3.218688
2018-04-24T00:17:51.321Z,3.218688
2018-04-24T00:18:03.773Z,3.218688
2018-04-24T00:18:16.619Z,1.609344
2018-04-24T00:18:30.080Z,3.218688
2018-04-24T00:18:42.513Z,8.04672
2018-04-24T00:18:54.945Z,8.04672
2018-04-24T00:19:07.347Z,6.437376
2018-04-24T00:19:19.748Z,6.437376
2018-04-24T00:19:32.160Z,9.656064
2018-04-24T00:19:44.617Z,9.656064
2018-04-24T00:19:57.015Z,11.265408
2018-04-24T00:20:09.536Z,8.04672
2018-04-24T00:20:21.955Z,8.04672
2018-04-24T00:20:34.407Z,8.04672
2018-04-24T00:20:46.811Z,8.04672
2018-04-24T00:20:59.211Z,8.04672
2018-04-24T00:21:11.632Z,6.437376
2018-04-24T00:21:24.088Z,11.265408
2018-04-24T00:21:36.513Z,11.265408
2018-04-24T00:21:48.931Z,11.265408
2018-04-24T00:22:01.328Z,11.265408
2018-04-24T00:22:13.803Z,8.04672
2018-04-24T00:22:26.200Z,8.04672
2018-04-24T00:22:38.682Z,8.04672
2018-04-24T00:22:51.105Z,11.265408
2018-04-24T00:23:03.529Z,11.265408
2018-04-24T00:23:15.933Z,8.04672
2018-04-24T00:23:28.408Z,9.656064
2018-04-24T00:23:40.810Z,11.265408
2018-04-24T00:23:53.225Z,11.265408
2018-04-24T00:24:05.660Z,6.437376
2018-04-24T00:24:18.070Z,6.437376
2018-04-24T00:24:30.470Z,8.04672
2018-04-24T00:24:42.881Z,8.04672
2018-04-24T00:24:55.280Z,8.04672
2018-04-24T00:25:07.695Z,1.609344
2018-04-24T00:25:20.102Z,3.218688
2018-04-24T00:25:32.500Z,3.218688
2018-04-24T00:25:44.904Z,9.656064
2018-04-24T00:25:57.337Z,9.656064
2018-04-24T00:26:10.335Z,9.656064
2018-04-24T00:26:23.019Z,9.656064
2018-04-24T00:26:35.428Z,9.656064
2018-04-24T00:26:47.835Z,9.656064
2018-04-24T00:27:00.231Z,9.656064
2018-04-24T00:27:12.628Z,8.04672
2018-04-24T00:27:25.057Z,9.656064
2018-04-24T00:27:37.450Z,9.656064
2018-04-24T00:27:49.952Z,9.656064
2018-04-24T00:28:02.358Z,9.656064
2018-04-24T00:28:14.799Z,3.218688
2018-04-24T00:28:27.247Z,3.218688
2018-04-24T00:28:39.664Z,3.218688
2018-04-24T00:28:52.070Z,3.218688
2018-04-24T00:29:04.489Z,1.609344
2018-04-24T00:29:16.968Z,1.609344
2018-04-24T00:29:29.366Z,3.218688
2018-04-24T00:29:41.802Z,3.218688
2018-04-24T00:29:54.223Z,3.218688
2018-04-24T00:30:06.633Z,0
2018-04-24T00:30:19.142Z,1.609344
2018-04-24T00:30:31.578Z,3.218688
2018-04-24T00:30:44.165Z,3.218688
2018-04-24T00:30:56.638Z,3.218688
2018-04-24T00:31:09.075Z,4.828032
2018-04-24T00:31:21.475Z,4.828032
2018-04-24T00:31:33.875Z,4.828032
2018-04-24T00:31:46.273Z,4.828032
2018-04-24T00:31:58.708Z,4.828032
2018-04-24T00:32:11.126Z,1.609344
2018-04-24T00:32:23.627Z,1.609344
2018-04-24T00:32:36.055Z,1.609344
2018-04-24T00:32:48.455Z,1.609344
2018-04-24T00:33:00.864Z,4.828032
2018-04-24T00:33:13.285Z,6.437376
2018-04-24T00:33:25.750Z,6.437376
2018-04-24T00:33:38.173Z,6.437376
2018-04-24T00:33:50.606Z,6.437376
2018-04-24T00:34:03.035Z,6.437376
2018-04-24T00:34:15.518Z,3.218688
2018-04-24T00:34:28.572Z,4.828032
2018-04-24T00:34:41.108Z,9.656064
2018-04-24T00:34:53.570Z,9.656064
2018-04-24T00:35:06.009Z,6.437376
2018-04-24T00:35:18.426Z,6.437376
2018-04-24T00:35:30.833Z,8.04672
2018-04-24T00:35:43.237Z,8.04672
2018-04-24T00:35:55.637Z,9.656064
2018-04-24T00:36:08.117Z,6.437376
2018-04-24T00:36:20.525Z,11.265408
2018-04-24T00:36:32.924Z,11.265408
2018-04-24T00:36:45.327Z,12.874752
2018-04-24T00:36:57.740Z,12.874752
2018-04-24T00:37:10.145Z,9.656064
2018-04-24T00:37:22.573Z,9.656064
2018-04-24T00:37:34.975Z,16.09344
2018-04-24T00:37:47.387Z,16.09344
2018-04-24T00:37:59.831Z,16.09344
2018-04-24T00:38:12.225Z,11.265408
2018-04-24T00:38:24.616Z,16.09344
2018-04-24T00:38:37.016Z,16.09344
2018-04-24T00:38:49.410Z,16.09344
2018-04-24T00:39:01.803Z,16.09344
2018-04-24T00:39:14.293Z,11.265408
2018-04-24T00:39:26.702Z,11.265408
2018-04-24T00:39:39.196Z,11.265408
2018-04-24T00:39:51.599Z,11.265408
2018-04-24T00:40:04.062Z,11.265408
2018-04-24T00:40:16.511Z,4.828032
2018-04-24T00:40:28.916Z,8.04672
2018-04-24T00:40:41.305Z,8.04672
2018-04-24T00:40:53.721Z,8.04672
2018-04-24T00:41:06.210Z,8.04672
2018-04-24T00:41:18.640Z,11.265408
2018-04-24T00:41:31.045Z,11.265408
2018-04-24T00:41:43.453Z,11.265408
2018-04-24T00:41:55.855Z,11.265408
2018-04-24T00:42:08.257Z,6.437376
2018-04-24T00:42:20.821Z,8.04672
2018-04-24T00:42:33.272Z,11.265408
2018-04-24T00:42:45.695Z,12.874752
2018-04-24T00:42:58.103Z,12.874752
2018-04-24T00:43:10.503Z,4.828032
2018-04-24T00:43:23.009Z,9.656064
2018-04-24T00:43:35.412Z,9.656064
2018-04-24T00:43:47.831Z,9.656064
2018-04-24T00:44:00.245Z,9.656064
2018-04-24T00:44:12.647Z,8.04672
2018-04-24T00:44:25.063Z,8.04672
2018-04-24T00:44:37.623Z,8.04672
2018-04-24T00:44:50.019Z,8.04672
2018-04-24T00:45:02.431Z,11.265408
2018-04-24T00:45:14.859Z,9.656064
2018-04-24T00:45:27.265Z,9.656064
2018-04-24T00:45:39.686Z,11.265408
2018-04-24T00:45:52.892Z,11.265408
2018-04-24T00:46:05.869Z,11.265408
2018-04-24T00:46:18.306Z,11.265408
2018-04-24T00:46:30.715Z,11.265408
2018-04-24T00:46:43.115Z,11.265408
2018-04-24T00:46:55.519Z,11.265408
2018-04-24T00:47:07.936Z,6.437376
2018-04-24T00:47:20.353Z,9.656064
2018-04-24T00:47:32.754Z,9.656064
2018-04-24T00:47:45.169Z,9.656064
2018-04-24T00:47:57.598Z,11.265408
2018-04-24T00:48:10.116Z,9.656064
2018-04-24T00:48:22.518Z,9.656064
2018-04-24T00:48:34.933Z,9.656064
2018-04-24T00:48:47.326Z,9.656064
2018-04-24T00:48:59.738Z,9.656064
2018-04-24T00:49:12.152Z,3.218688
2018-04-24T00:49:24.558Z,6.437376
2018-04-24T00:49:37.029Z,6.437376
2018-04-24T00:49:49.431Z,8.04672
2018-04-24T00:50:01.878Z,8.04672
2018-04-24T00:50:14.356Z,6.437376
2018-04-24T00:50:26.836Z,6.437376
2018-04-24T00:50:39.279Z,6.437376
2018-04-24T00:50:51.763Z,6.437376
2018-04-24T00:51:04.180Z,6.437376
2018-04-24T00:51:16.600Z,8.04672
2018-04-24T00:51:29.003Z,8.04672
2018-04-24T00:51:41.416Z,8.04672
2018-04-24T00:51:53.808Z,8.04672
2018-04-24T00:52:06.216Z,3.218688
2018-04-24T00:52:18.646Z,3.218688
2018-04-24T00:52:31.052Z,3.218688
2018-04-24T00:52:43.458Z,3.218688
2018-04-24T00:52:55.884Z,8.04672
2018-04-24T00:53:08.311Z,6.437376
2018-04-24T00:53:20.776Z,8.04672
2018-04-24T00:53:33.299Z,8.04672
2018-04-24T00:53:45.829Z,8.04672
2018-04-24T00:53:58.226Z,8.04672
2018-04-24T00:54:10.631Z,3.218688
2018-04-24T00:54:23.017Z,3.218688
2018-04-24T00:54:35.455Z,3.218688
2018-04-24T00:54:47.869Z,3.218688
2018-04-24T00:55:00.355Z,3.218688
2018-04-24T00:55:12.775Z,1.609344
2018-04-24T00:55:25.268Z,1.609344
2018-04-24T00:55:37.656Z,1.609344
2018-04-24T00:55:50.061Z,3.218688
2018-04-24T00:56:02.469Z,4.828032
2018-04-24T00:56:14.872Z,6.437376
2018-04-24T00:56:27.272Z,6.437376
2018-04-24T00:56:39.684Z,6.437376
2018-04-24T00:56:52.147Z,6.437376
2018-04-24T00:57:04.565Z,3.218688
2018-04-24T00:57:16.966Z,3.218688
2018-04-24T00:57:29.393Z,3.218688
2018-04-24T00:57:41.802Z,3.218688
2018-04-24T00:57:54.199Z,3.218688
2018-04-24T00:58:06.624Z,3.218688
2018-04-24T00:58:19.052Z,3.218688
2018-04-24T00:58:31.446Z,3.218688
2018-04-24T00:58:43.867Z,8.04672
2018-04-24T00:58:56.364Z,8.04672
2018-04-24T00:59:08.769Z,8.04672
2018-04-24T00:59:21.186Z,8.04672
2018-04-24T00:59:33.581Z,8.04672
2018-04-24T00:59:46.010Z,8.04672
2018-04-24T00:59:58.420Z,8.04672
2018-04-24T01:00:11.080Z,6.437376
2018-04-24T01:00:23.525Z,8.04672
2018-04-24T01:00:36.053Z,8.04672
2018-04-24T01:00:48.488Z,8.04672
2018-04-24T01:01:00.900Z,8.04672
2018-04-24T01:01:13.339Z,4.828032
2018-04-24T01:01:25.834Z,6.437376
2018-04-24T01:01:38.267Z,8.04672
2018-04-24T01:01:50.670Z,8.04672
2018-04-24T01:02:03.095Z,8.04672
2018-04-24T01:02:15.496Z,9.656064
2018-04-24T01:02:27.913Z,9.656064
2018-04-24T01:02:40.344Z,9.656064
2018-04-24T01:02:52.747Z,9.656064
2018-04-24T01:03:05.161Z,1.609344
2018-04-24T01:03:17.600Z,3.218688
2018-04-24T01:03:30.023Z,3.218688
2018-04-24T01:03:42.445Z,4.828032
2018-04-24T01:03:54.840Z,6.437376
2018-04-24T01:04:07.259Z,3.218688
2018-04-24T01:04:19.671Z,6.437376
2018-04-24T01:04:32.100Z,6.437376
2018-04-24T01:04:44.516Z,6.437376
2018-04-24T01:04:56.942Z,6.437376
2018-04-24T01:05:09.513Z,8.04672
2018-04-24T01:05:21.932Z,8.04672
2018-04-24T01:05:34.342Z,8.04672
2018-04-24T01:05:46.756Z,8.04672
2018-04-24T01:05:59.161Z,8.04672
2018-04-24T01:06:11.581Z,6.437376
2018-04-24T01:06:24.008Z,8.04672
2018-04-24T01:06:36.401Z,8.04672
2018-04-24T01:06:49.266Z,9.656064
2018-04-24T01:07:01.798Z,9.656064
2018-04-24T01:07:14.215Z,8.04672
2018-04-24T01:07:26.626Z,8.04672
2018-04-24T01:07:39.021Z,8.04672
2018-04-24T01:07:51.428Z,8.04672
2018-04-24T01:08:03.833Z,8.04672
2018-04-24T01:08:16.230Z,8.04672
2018-04-24T01:08:28.628Z,8.04672
2018-04-24T01:08:41.042Z,8.04672
2018-04-24T01:08:53.460Z,8.04672
2018-04-24T01:09:05.878Z,1.609344
2018-04-24T01:09:18.315Z,1.609344
2018-04-24T01:09:30.745Z,3.218688
2018-04-24T01:09:43.187Z,3.218688
2018-04-24T01:09:55.602Z,3.218688
2018-04-24T01:10:08.061Z,3.218688
2018-04-24T01:10:20.473Z,3.218688
2018-04-24T01:10:32.873Z,3.218688
2018-04-24T01:10:45.289Z,3.218688
2018-04-24T01:10:57.710Z,3.218688
2018-04-24T01:11:10.160Z,6.437376
2018-04-24T01:11:22.692Z,6.437376
2018-04-24T01:11:35.146Z,6.437376
2018-04-24T01:11:47.543Z,8.04672
2018-04-24T01:11:59.956Z,8.04672
2018-04-24T01:12:12.354Z,3.218688
2018-04-24T01:12:24.774Z,3.218688
2018-04-24T01:12:37.199Z,3.218688
2018-04-24T01:12:49.637Z,4.828032
2018-04-24T01:13:02.034Z,4.828032
2018-04-24T01:13:14.447Z,3.218688
2018-04-24T01:13:26.863Z,3.218688
2018-04-24T01:13:39.501Z,3.218688
2018-04-24T01:13:51.913Z,3.218688
2018-04-24T01:14:04.329Z,3.218688
2018-04-24T01:14:16.731Z,3.218688
2018-04-24T01:14:29.135Z,3.218688
2018-04-24T01:14:41.540Z,6.437376
2018-04-24T01:14:53.971Z,6.437376
2018-04-24T01:15:06.379Z,4.828032
2018-04-24T01:15:18.782Z,4.828032
2018-04-24T01:15:31.265Z,4.828032
2018-04-24T01:15:43.695Z,4.828032
2018-04-24T01:15:56.104Z,4.828032
2018-04-24T01:16:08.510Z,3.218688
2018-04-24T01:16:20.935Z,3.218688
2018-04-24T01:16:33.334Z,3.218688
2018-04-24T01:16:45.762Z,3.218688
2018-04-24T01:16:58.168Z,3.218688
2018-04-24T01:17:10.588Z,3.218688
2018-04-24T01:17:23.002Z,3.218688
2018-04-24T01:17:35.395Z,3.218688
2018-04-24T01:17:47.870Z,3.218688
2018-04-24T01:18:00.291Z,4.828032
2018-04-24T01:18:12.710Z,9.656064
2018-04-24T01:18:25.260Z,9.656064
2018-04-24T01:18:37.857Z,9.656064
2018-04-24T01:18:50.288Z,9.656064
2018-04-24T01:19:02.785Z,9.656064
2018-04-24T01:19:15.237Z,3.218688
2018-04-24T01:19:27.670Z,3.218688
2018-04-24T01:19:40.158Z,3.218688
2018-04-24T01:19:52.579Z,3.218688
2018-04-24T01:20:04.984Z,1.609344
2018-04-24T01:20:17.386Z,1.609344
2018-04-24T01:20:29.789Z,3.218688
2018-04-24T01:20:42.199Z,3.218688
2018-04-24T01:20:54.625Z,3.218688
2018-04-24T01:21:07.049Z,3.218688
2018-04-24T01:21:19.463Z,3.218688
2018-04-24T01:21:31.936Z,3.218688
2018-04-24T01:21:44.336Z,3.218688
2018-04-24T01:21:56.754Z,3.218688
2018-04-24T01:22:09.155Z,1.609344
2018-04-24T01:22:21.717Z,1.609344
2018-04-24T01:22:34.201Z,1.609344
2018-04-24T01:22:46.601Z,1.609344
2018-04-24T01:22:59.004Z,8.04672
2018-04-24T01:23:11.414Z,8.04672
2018-04-24T01:23:23.811Z,8.04672
2018-04-24T01:23:36.226Z,8.04672
2018-04-24T01:23:48.641Z,8.04672
2018-04-24T01:24:01.136Z,8.04672
2018-04-24T01:24:13.558Z,1.609344
2018-04-24T01:24:25.962Z,1.609344
2018-04-24T01:24:38.356Z,1.609344
2018-04-24T01:24:50.785Z,3.218688
2018-04-24T01:25:03.221Z,3.218688
2018-04-24T01:25:15.640Z,3.218688
2018-04-24T01:25:28.048Z,3.218688
2018-04-24T01:25:40.472Z,3.218688
2018-04-24T01:25:52.874Z,3.218688
2018-04-24T01:26:05.278Z,0
2018-04-24T01:26:17.696Z,0
2018-04-24T01:26:30.269Z,0
2018-04-24T01:26:42.674Z,8.04672
2018-04-24T01:26:55.101Z,8.04672
2018-04-24T01:27:07.499Z,4.828032
2018-04-24T01:27:19.893Z,4.828032
2018-04-24T01:27:32.313Z,6.437376
2018-04-24T01:27:44.716Z,8.04672
2018-04-24T01:27:57.212Z,8.04672
2018-04-24T01:28:09.630Z,1.609344
2018-04-24T01:28:22.042Z,6.437376
2018-04-24T01:28:34.445Z,8.04672
2018-04-24T01:28:46.845Z,8.04672
2018-04-24T01:28:59.258Z,8.04672
2018-04-24T01:29:11.656Z,4.828032
2018-04-24T01:29:24.067Z,8.04672
2018-04-24T01:29:36.507Z,8.04672
2018-04-24T01:29:48.942Z,8.04672
2018-04-24T01:30:01.375Z,8.04672
2018-04-24T01:30:13.805Z,9.656064
2018-04-24T01:30:26.215Z,9.656064
2018-04-24T01:30:38.606Z,9.656064
2018-04-24T01:30:51.430Z,9.656064
2018-04-24T01:31:03.830Z,9.656064
2018-04-24T01:31:16.244Z,3.218688
2018-04-24T01:31:28.815Z,3.218688
2018-04-24T01:31:41.230Z,3.218688
2018-04-24T01:31:53.635Z,4.828032
2018-04-24T01:32:06.075Z,3.218688
2018-04-24T01:32:18.494Z,4.828032
2018-04-24T01:32:30.892Z,6.437376
2018-04-24T01:32:43.293Z,8.04672
2018-04-24T01:32:55.704Z,8.04672
2018-04-24T01:33:08.123Z,8.04672
2018-04-24T01:33:20.533Z,9.656064
2018-04-24T01:33:32.935Z,9.656064
2018-04-24T01:33:45.342Z,9.656064
2018-04-24T01:33:57.753Z,9.656064
2018-04-24T01:34:10.188Z,4.828032
2018-04-24T01:34:22.593Z,4.828032
2018-04-24T01:34:35.022Z,4.828032
2018-04-24T01:34:47.465Z,8.04672
2018-04-24T01:34:59.866Z,9.656064
2018-04-24T01:35:12.282Z,8.04672
2018-04-24T01:35:24.780Z,8.04672
2018-04-24T01:35:37.198Z,8.04672
2018-04-24T01:35:49.619Z,8.04672
2018-04-24T01:36:02.029Z,8.04672
2018-04-24T01:36:14.423Z,3.218688
2018-04-24T01:36:26.857Z,3.218688
2018-04-24T01:36:39.282Z,8.04672
2018-04-24T01:36:51.777Z,8.04672
2018-04-24T01:37:04.204Z,8.04672
2018-04-24T01:37:16.629Z,9.656064
2018-04-24T01:37:29.036Z,9.656064
2018-04-24T01:37:41.435Z,9.656064
2018-04-24T01:37:53.856Z,9.656064
2018-04-24T01:38:06.289Z,6.437376
2018-04-24T01:38:18.787Z,6.437376
2018-04-24T01:38:31.240Z,8.04672
2018-04-24T01:38:43.652Z,8.04672
2018-04-24T01:38:56.064Z,8.04672
2018-04-24T01:39:08.476Z,3.218688
2018-04-24T01:39:20.891Z,3.218688
2018-04-24T01:39:33.362Z,3.218688
2018-04-24T01:39:45.779Z,3.218688
2018-04-24T01:39:58.172Z,6.437376
2018-04-24T01:40:10.743Z,6.437376
2018-04-24T01:40:23.147Z,8.04672
2018-04-24T01:40:35.643Z,8.04672
2018-04-24T01:40:48.078Z,8.04672
2018-04-24T01:41:00.513Z,8.04672
2018-04-24T01:41:12.935Z,3.218688
2018-04-24T01:41:25.377Z,3.218688
2018-04-24T01:41:37.794Z,3.218688
2018-04-24T01:41:50.234Z,3.218688
2018-04-24T01:42:02.658Z,3.218688
2018-04-24T01:42:15.209Z,6.437376
2018-04-24T01:42:27.633Z,6.437376
2018-04-24T01:42:40.037Z,6.437376
2018-04-24T01:42:52.451Z,6.437376
2018-04-24T01:43:04.880Z,3.218688
2018-04-24T01:43:17.295Z,3.218688
2018-04-24T01:43:29.706Z,3.218688
2018-04-24T01:43:42.129Z,3.218688
2018-04-24T01:43:54.560Z,3.218688
2018-04-24T01:44:06.961Z,0
2018-04-24T01:44:19.365Z,1.609344
2018-04-24T01:44:31.819Z,1.609344
2018-04-24T01:44:44.232Z,1.609344
2018-04-24T01:44:56.632Z,3.218688
2018-04-24T01:45:09.066Z,3.218688
2018-04-24T01:45:21.476Z,3.218688
2018-04-24T01:45:33.869Z,3.218688
2018-04-24T01:45:46.412Z,3.218688
2018-04-24T01:45:58.834Z,4.828032
2018-04-24T01:46:11.323Z,4.828032
2018-04-24T01:46:23.717Z,4.828032
2018-04-24T01:46:36.131Z,4.828032
2018-04-24T01:46:48.562Z,8.04672
2018-04-24T01:47:01.006Z,8.04672
2018-04-24T01:47:13.418Z,9.656064
2018-04-24T01:47:25.806Z,9.656064
2018-04-24T01:47:38.204Z,9.656064
2018-04-24T01:47:50.614Z,9.656064
2018-04-24T01:48:03.031Z,9.656064
2018-04-24T01:48:15.620Z,6.437376
2018-04-24T01:48:28.046Z,6.437376
2018-04-24T01:48:40.470Z,6.437376
2018-04-24T01:48:52.867Z,6.437376
2018-04-24T01:49:05.310Z,6.437376
2018-04-24T01:49:17.709Z,9.656064
2018-04-24T01:49:30.118Z,9.656064
2018-04-24T01:49:42.533Z,9.656064
2018-04-24T01:49:55.207Z,9.656064
2018-04-24T01:50:07.811Z,6.437376
2018-04-24T01:50:20.335Z,6.437376
2018-04-24T01:50:32.880Z,6.437376
2018-04-24T01:50:45.282Z,8.04672
2018-04-24T01:50:57.681Z,8.04672
2018-04-24T01:51:10.086Z,4.828032
2018-04-24T01:51:22.495Z,4.828032
2018-04-24T01:51:34.946Z,8.04672
2018-04-24T01:51:47.342Z,8.04672
2018-04-24T01:51:59.748Z,8.04672
2018-04-24T01:52:12.172Z,3.218688
2018-04-24T01:52:24.631Z,8.04672
2018-04-24T01:52:37.050Z,9.656064
2018-04-24T01:52:49.478Z,9.656064
2018-04-24T01:53:01.889Z,9.656064
2018-04-24T01:53:14.302Z,9.656064
2018-04-24T01:53:26.696Z,9.656064
2018-04-24T01:53:39.178Z,9.656064
2018-04-24T01:53:51.715Z,9.656064
2018-04-24T01:54:04.176Z,9.656064
2018-04-24T01:54:16.578Z,6.437376
2018-04-24T01:54:29.000Z,6.437376
2018-04-24T01:54:41.417Z,9.656064
2018-04-24T01:54:53.875Z,9.656064
2018-04-24T01:55:06.292Z,1.609344
2018-04-24T01:55:18.688Z,6.437376
2018-04-24T01:55:31.214Z,8.04672
2018-04-24T01:55:43.652Z,8.04672
2018-04-24T01:55:56.141Z,9.656064
2018-04-24T01:56:08.562Z,9.656064
2018-04-24T01:56:20.968Z,9.656064
2018-04-24T01:56:33.376Z,9.656064
2018-04-24T01:56:45.804Z,9.656064
2018-04-24T01:56:58.204Z,9.656064
2018-04-24T01:57:10.703Z,3.218688
2018-04-24T01:57:23.138Z,6.437376
2018-04-24T01:57:35.535Z,8.04672
2018-04-24T01:57:47.969Z,8.04672
2018-04-24T01:58:00.370Z,8.04672
2018-04-24T01:58:12.789Z,1.609344
2018-04-24T01:58:25.193Z,1.609344
2018-04-24T01:58:37.680Z,1.609344
2018-04-24T01:58:50.084Z,4.828032
2018-04-24T01:59:02.529Z,4.828032
2018-04-24T01:59:15.039Z,3.218688
2018-04-24T01:59:27.446Z,3.218688
2018-04-24T01:59:39.859Z,3.218688
2018-04-24T01:59:52.252Z,8.04672
2018-04-24T02:00:04.677Z,4.828032
2018-04-24T02:00:17.133Z,6.437376
2018-04-24T02:00:29.543Z,9.656064
2018-04-24T02:00:42.019Z,9.656064
2018-04-24T02:00:54.444Z,9.656064
2018-04-24T02:01:06.893Z,3.218688
2018-04-24T02:01:19.298Z,6.437376
2018-04-24T02:01:31.758Z,6.437376
2018-04-24T02:01:44.209Z,6.437376
2018-04-24T02:01:56.619Z,6.437376
2018-04-24T02:02:09.040Z,3.218688
2018-04-24T02:02:21.458Z,3.218688
2018-04-24T02:02:33.869Z,3.218688
2018-04-24T02:02:46.297Z,3.218688
2018-04-24T02:02:58.720Z,3.218688
2018-04-24T02:03:11.145Z,3.218688
2018-04-24T02:03:23.580Z,3.218688
2018-04-24T02:03:35.988Z,3.218688
2018-04-24T02:03:48.408Z,3.218688
2018-04-24T02:04:00.907Z,3.218688
2018-04-24T02:04:13.309Z,3.218688
2018-04-24T02:04:25.724Z,3.218688
2018-04-24T02:04:38.144Z,6.437376
2018-04-24T02:04:50.754Z,6.437376
2018-04-24T02:05:03.171Z,6.437376
2018-04-24T02:05:15.598Z,3.218688
2018-04-24T02:05:28.003Z,6.437376
2018-04-24T02:05:40.460Z,8.04672
2018-04-24T02:05:52.868Z,9.656064
2018-04-24T02:06:05.268Z,3.218688
2018-04-24T02:06:17.704Z,6.437376
2018-04-24T02:06:30.152Z,6.437376
2018-04-24T02:06:42.604Z,6.437376
2018-04-24T02:06:55.027Z,9.656064
2018-04-24T02:07:07.431Z,9.656064
2018-04-24T02:07:19.832Z,9.656064
2018-04-24T02:07:32.249Z,9.656064
2018-04-24T02:07:44.694Z,9.656064
2018-04-24T02:07:57.099Z,9.656064
2018-04-24T02:08:09.505Z,8.04672
2018-04-24T02:08:22.001Z,8.04672
2018-04-24T02:08:34.425Z,8.04672
2018-04-24T02:08:46.825Z,8.04672
2018-04-24T02:08:59.257Z,8.04672
2018-04-24T02:09:11.662Z,3.218688
2018-04-24T02:09:24.063Z,3.218688
2018-04-24T02:09:36.475Z,3.218688
2018-04-24T02:09:48.889Z,3.218688
2018-04-24T02:10:01.302Z,3.218688
2018-04-24T02:10:13.719Z,1.609344
2018-04-24T02:10:26.109Z,1.609344
2018-04-24T02:10:38.604Z,1.609344
2018-04-24T02:10:51.019Z,1.609344
2018-04-24T02:11:03.461Z,1.609344
2018-04-24T02:11:15.859Z,1.609344
2018-04-24T02:11:28.270Z,3.218688
2018-04-24T02:11:40.672Z,4.828032
2018-04-24T02:11:53.079Z,8.04672
2018-04-24T02:12:05.493Z,3.218688
2018-04-24T02:12:17.913Z,6.437376
2018-04-24T02:12:30.316Z,6.437376
2018-04-24T02:12:42.728Z,6.437376
2018-04-24T02:12:55.119Z,6.437376
2018-04-24T02:13:07.523Z,1.609344
2018-04-24T02:13:19.930Z,1.609344
2018-04-24T02:13:32.547Z,1.609344
2018-04-24T02:13:45.049Z,1.609344
2018-04-24T02:13:57.455Z,1.609344
2018-04-24T02:14:09.934Z,1.609344
2018-04-24T02:14:22.575Z,1.609344
2018-04-24T02:14:34.977Z,1.609344
2018-04-24T02:14:47.389Z,1.609344
2018-04-24T02:14:59.811Z,1.609344
2018-04-24T02:15:12.252Z,1.609344
2018-04-24T02:15:24.686Z,1.609344
2018-04-24T02:15:37.107Z,1.609344
2018-04-24T02:15:49.522Z,1.609344
2018-04-24T02:16:01.922Z,1.609344
2018-04-24T02:16:14.348Z,0
2018-04-24T02:16:26.779Z,0
2018-04-24T02:16:39.213Z,0
2018-04-24T02:16:51.609Z,0
2018-04-24T02:17:04.013Z,1.609344
2018-04-24T02:17:16.449Z,1.609344
2018-04-24T02:17:29.172Z,1.609344
2018-04-24T02:17:41.575Z,1.609344
2018-04-24T02:17:53.967Z,3.218688
2018-04-24T02:18:06.381Z,1.609344
2018-04-24T02:18:18.784Z,3.218688
2018-04-24T02:18:31.462Z,3.218688
2018-04-24T02:18:43.884Z,3.218688
2018-04-24T02:18:56.314Z,3.218688
2018-04-24T02:19:08.785Z,0
2018-04-24T02:19:21.198Z,1.609344
2018-04-24T02:19:33.698Z,1.609344
2018-04-24T02:19:46.129Z,1.609344
2018-04-24T02:19:58.577Z,1.609344
2018-04-24T02:20:10.987Z,0
2018-04-24T02:20:23.458Z,0
2018-04-24T02:20:35.868Z,0
2018-04-24T02:20:48.282Z,1.609344
2018-04-24T02:21:00.767Z,1.609344
2018-04-24T02:21:13.158Z,0
2018-04-24T02:21:25.561Z,1.609344
2018-04-24T02:21:38.067Z,3.218688
2018-04-24T02:21:50.473Z,3.218688
2018-04-24T02:22:02.910Z,3.218688
2018-04-24T02:22:15.338Z,3.218688
2018-04-24T02:22:27.732Z,3.218688
2018-04-24T02:22:40.697Z,3.218688
2018-04-24T02:22:53.265Z,3.218688
2018-04-24T02:23:05.674Z,3.218688
2018-04-24T02:23:18.070Z,3.218688
2018-04-24T02:23:30.641Z,3.218688
2018-04-24T02:23:43.057Z,3.218688
2018-04-24T02:23:55.483Z,3.218688
2018-04-24T02:24:07.879Z,1.609344
2018-04-24T02:24:20.283Z,1.609344
2018-04-24T02:24:32.747Z,1.609344
2018-04-24T02:24:45.256Z,1.609344
2018-04-24T02:24:57.892Z,1.609344
2018-04-24T02:25:10.825Z,1.609344
2018-04-24T02:25:23.237Z,1.609344
2018-04-24T02:25:35.699Z,1.609344
2018-04-24T02:25:48.111Z,1.609344
2018-04-24T02:26:00.539Z,3.218688
2018-04-24T02:26:12.960Z,3.218688
2018-04-24T02:26:25.369Z,3.218688
2018-04-24T02:26:37.838Z,3.218688
2018-04-24T02:26:50.260Z,4.828032
2018-04-24T02:27:02.704Z,6.437376
2018-04-24T02:27:15.178Z,6.437376